createdAt,value
2022-09-26T00:01:55.481Z,5.22
2022-09-26T00:04:31.842Z,4.68
2022-09-26T00:07:02.087Z,4.77
2022-09-26T00:09:30.565Z,5.32
2022-09-26T00:11:58.884Z,4.97
2022-09-26T00:14:30.740Z,4.78
2022-09-26T00:16:58.976Z,4.80
2022-09-26T00:19:27.449Z,5.43
2022-09-26T00:21:56.446Z,4.25
2022-09-26T00:24:24.374Z,4.68
2022-09-26T00:26:52.628Z,4.78
2022-09-26T00:29:20.605Z,5.00
2022-09-26T00:31:49.790Z,4.50
2022-09-26T00:34:21.175Z,4.18
2022-09-26T00:36:49.299Z,4.43
2022-09-26T00:39:17.796Z,4.22
2022-09-26T00:41:47.920Z,4.57
2022-09-26T00:44:48.063Z,4.30
2022-09-26T00:47:36.875Z,4.18
2022-09-26T00:50:14.036Z,4.25
2022-09-26T00:52:46.399Z,4.95
2022-09-26T00:55:17.182Z,4.30
2022-09-26T00:57:48.672Z,3.83
2022-09-26T01:00:16.919Z,4.35
2022-09-26T01:02:47.996Z,4.90
2022-09-26T01:05:18.207Z,4.82
2022-09-26T01:07:46.273Z,4.45
2022-09-26T01:10:18.223Z,4.40
2022-09-26T01:12:46.579Z,4.57
2022-09-26T01:15:15.298Z,4.20
2022-09-26T01:17:48.677Z,4.70
2022-09-26T01:20:31.138Z,4.13
2022-09-26T01:23:32.931Z,4.30
2022-09-26T01:26:39.011Z,4.40
2022-09-26T01:29:46.414Z,4.40
2022-09-26T01:32:40.903Z,4.03
2022-09-26T01:35:20.677Z,4.53
2022-09-26T01:38:01.048Z,3.90
2022-09-26T01:40:38.587Z,3.83
2022-09-26T01:43:14.795Z,4.00
2022-09-26T01:45:51.628Z,3.60
2022-09-26T01:48:26.210Z,3.70
2022-09-26T01:51:00.516Z,3.70
2022-09-26T01:53:33.291Z,3.30
2022-09-26T01:56:04.803Z,3.45
2022-09-26T01:58:36.187Z,3.20
2022-09-26T02:01:09.193Z,3.58
2022-09-26T02:03:43.349Z,3.37
2022-09-26T02:06:16.824Z,3.28
2022-09-26T02:08:49.562Z,3.20
2022-09-26T02:11:19.728Z,2.97
2022-09-26T02:14:36.031Z,3.63
2022-09-26T02:17:09.012Z,3.10
2022-09-26T02:19:46.984Z,3.35
2022-09-26T02:22:14.858Z,3.28
2022-09-26T02:24:42.687Z,3.28
2022-09-26T02:27:10.752Z,3.55
2022-09-26T02:29:39.532Z,3.27
2022-09-26T02:34:46.829Z,3.42
2022-09-26T02:37:16.681Z,3.30
2022-09-26T02:39:45.835Z,3.55
2022-09-26T02:42:21.285Z,3.80
2022-09-26T02:45:17.020Z,3.13
2022-09-26T02:48:04.612Z,3.97
2022-09-26T02:50:47.460Z,3.53
2022-09-26T02:53:24.446Z,3.17
2022-09-26T02:56:02.132Z,3.60
2022-09-26T02:58:36.388Z,3.38
2022-09-26T03:01:11.943Z,3.97
2022-09-26T03:03:45.289Z,3.42
2022-09-26T03:06:18.341Z,3.88
2022-09-26T03:08:49.034Z,3.13
2022-09-26T03:11:19.339Z,3.50
2022-09-26T03:13:48.419Z,3.05
2022-09-26T03:16:16.271Z,3.28
2022-09-26T03:18:53.224Z,2.92
2022-09-26T03:21:22.911Z,3.60
2022-09-26T03:23:51.877Z,3.17
2022-09-26T03:26:22.266Z,2.80
2022-09-26T03:28:50.429Z,3.20
2022-09-26T03:31:18.866Z,2.95
2022-09-26T03:33:48.057Z,3.03
2022-09-26T03:36:17.296Z,3.38
2022-09-26T03:38:46.336Z,2.92
2022-09-26T03:41:14.530Z,3.75
2022-09-26T03:43:43.704Z,3.42
2022-09-26T03:46:13.496Z,3.03
2022-09-26T03:48:41.656Z,3.45
2022-09-26T03:51:12.133Z,3.15
2022-09-26T03:53:42.269Z,3.33
2022-09-26T03:56:14.978Z,3.13
2022-09-26T03:58:44.075Z,3.10
2022-09-26T04:01:14.617Z,3.08
2022-09-26T04:03:50.008Z,3.15
2022-09-26T04:06:20.697Z,3.35
2022-09-26T04:08:51.311Z,3.70
2022-09-26T04:11:22.318Z,3.80
2022-09-26T04:13:53.952Z,3.22
2022-09-26T04:16:22.929Z,3.35
2022-09-26T04:18:54.309Z,3.72
2022-09-26T04:21:22.386Z,4.00
2022-09-26T04:23:50.381Z,3.33
2022-09-26T04:26:23.558Z,3.97
2022-09-26T04:28:55.634Z,3.42
2022-09-26T04:31:24.786Z,3.65
2022-09-26T04:33:54.819Z,3.97
2022-09-26T04:36:24.073Z,4.10
2022-09-26T04:38:52.091Z,3.80
2022-09-26T04:41:23.339Z,3.60
2022-09-26T04:43:51.207Z,4.35
2022-09-26T04:46:25.767Z,4.20
2022-09-26T04:48:57.347Z,3.97
2022-09-26T04:51:27.230Z,3.78
2022-09-26T04:53:54.905Z,4.05
2022-09-26T04:56:26.146Z,4.05
2022-09-26T04:58:56.303Z,4.13
2022-09-26T05:01:27.308Z,3.73
2022-09-26T05:03:56.311Z,3.70
2022-09-26T05:06:24.190Z,3.90
2022-09-26T05:08:52.379Z,3.88
2022-09-26T05:11:21.672Z,3.65
2022-09-26T05:13:54.054Z,3.73
2022-09-26T05:16:24.045Z,3.45
2022-09-26T05:18:52.715Z,4.10
2022-09-26T05:21:20.927Z,4.20
2022-09-26T05:24:06.439Z,4.57
2022-09-26T05:26:41.766Z,4.80
2022-09-26T05:29:12.107Z,3.92
2022-09-26T05:31:40.339Z,4.18
2022-09-26T05:34:14.244Z,3.75
2022-09-26T05:36:45.770Z,4.15
2022-09-26T05:39:27.427Z,3.37
2022-09-26T05:41:55.702Z,3.65
2022-09-26T05:44:25.059Z,4.07
2022-09-26T05:46:53.014Z,3.55
2022-09-26T05:49:23.674Z,3.47
2022-09-26T05:51:52.797Z,3.60
2022-09-26T05:54:20.609Z,4.22
2022-09-26T05:56:48.268Z,4.82
2022-09-26T05:59:16.224Z,5.13
2022-09-26T06:01:47.237Z,5.57
2022-09-26T06:04:15.642Z,5.10
2022-09-26T06:06:44.238Z,4.85
2022-09-26T06:09:14.629Z,4.65
2022-09-26T06:11:43.950Z,5.10
2022-09-26T06:14:11.673Z,5.05
2022-09-26T06:16:39.706Z,6.10
2022-09-26T06:19:08.961Z,6.80
2022-09-26T06:21:40.004Z,6.82
2022-09-26T06:24:07.922Z,4.47
2022-09-26T06:26:36.203Z,4.97
2022-09-26T06:29:04.752Z,4.43
2022-09-26T06:31:33.132Z,4.93
2022-09-26T06:34:01.615Z,5.30
2022-09-26T06:36:31.758Z,5.65
2022-09-26T06:38:59.401Z,7.32
2022-09-26T06:41:27.848Z,6.20
2022-09-26T06:43:56.184Z,5.13
2022-09-26T06:46:23.892Z,6.53
2022-09-26T06:48:51.567Z,5.57
2022-09-26T06:51:20.217Z,4.30
2022-09-26T06:53:49.345Z,4.40
2022-09-26T06:56:18.347Z,4.40
2022-09-26T06:58:46.510Z,4.30
2022-09-26T07:01:14.547Z,4.07
2022-09-26T07:03:45.615Z,3.40
2022-09-26T07:06:14.491Z,3.70
2022-09-26T07:09:01.569Z,3.30
2022-09-26T07:11:42.136Z,3.40
2022-09-26T07:14:19.737Z,3.92
2022-09-26T07:16:50.073Z,3.88
2022-09-26T07:19:19.095Z,3.47
2022-09-26T07:21:47.330Z,3.50
2022-09-26T07:24:17.964Z,3.13
2022-09-26T07:26:47.057Z,2.95
2022-09-26T07:29:14.899Z,2.58
2022-09-26T07:31:43.047Z,2.33
2022-09-26T07:34:18.138Z,2.72
2022-09-26T07:36:47.777Z,2.45
2022-09-26T07:39:15.997Z,2.00
2022-09-26T07:41:46.138Z,2.30
2022-09-26T07:45:09.683Z,2.27
2022-09-26T07:47:20.787Z,2.08
2022-09-26T07:50:05.952Z,2.53
2022-09-26T07:52:33.760Z,3.10
2022-09-26T07:55:01.755Z,2.67
2022-09-26T07:57:29.770Z,1.83
2022-09-26T07:59:59.488Z,2.28
2022-09-26T08:02:32.168Z,2.15
2022-09-26T08:05:01.169Z,2.20
2022-09-26T08:07:29.434Z,2.00
2022-09-26T08:09:58.779Z,1.87
2022-09-26T08:12:28.112Z,1.80
2022-09-26T08:14:56.465Z,2.22
2022-09-26T08:17:26.193Z,1.70
2022-09-26T08:19:53.789Z,1.70
2022-09-26T08:22:21.391Z,1.47
2022-09-26T08:24:50.787Z,2.28
2022-09-26T08:27:19.083Z,1.60
2022-09-26T08:29:49.653Z,1.52
2022-09-26T08:32:18.303Z,1.25
2022-09-26T08:34:49.251Z,1.53
2022-09-26T08:37:16.999Z,3.60
2022-09-26T08:39:44.867Z,2.70
2022-09-26T08:42:28.834Z,1.52
2022-09-26T08:45:33.880Z,1.33
2022-09-26T08:48:05.954Z,2.77
2022-09-26T08:50:44.456Z,4.97
2022-09-26T08:53:18.170Z,2.20
2022-09-26T08:55:47.982Z,1.42
2022-09-26T08:58:19.758Z,2.78
2022-09-26T09:00:51.709Z,1.73
2022-09-26T09:03:28.026Z,2.78
2022-09-26T09:06:03.736Z,2.20
2022-09-26T09:08:36.312Z,1.88
2022-09-26T09:11:14.675Z,1.80
2022-09-26T09:13:56.613Z,1.40
2022-09-26T09:16:38.187Z,1.40
2022-09-26T09:19:15.320Z,1.20
2022-09-26T09:21:54.621Z,1.63
2022-09-26T09:24:34.086Z,1.25
2022-09-26T09:30:17.707Z,1.48
2022-09-26T09:32:50.995Z,1.88
2022-09-26T09:35:21.498Z,1.50
2022-09-26T09:37:53.512Z,1.13
2022-09-26T09:40:28.761Z,1.30
2022-09-26T09:43:02.834Z,1.00
2022-09-26T09:45:36.203Z,1.20
2022-09-26T09:48:05.556Z,1.23
2022-09-26T09:50:41.214Z,1.30
2022-09-26T09:53:25.136Z,1.33
2022-09-26T09:56:06.097Z,1.70
2022-09-26T09:58:57.549Z,1.58
2022-09-26T10:01:29.436Z,1.25
2022-09-26T10:04:04.896Z,1.17
2022-09-26T10:06:45.099Z,1.10
2022-09-26T10:09:38.773Z,1.20
2022-09-26T10:12:14.739Z,1.00
2022-09-26T10:14:48.668Z,1.00
2022-09-26T10:17:20.409Z,1.35
2022-09-26T10:19:48.920Z,0.90
2022-09-26T10:22:25.770Z,1.50
2022-09-26T10:25:01.551Z,1.13
2022-09-26T10:27:37.942Z,1.10
2022-09-26T10:30:27.587Z,1.02
2022-09-26T10:32:59.930Z,1.57
2022-09-26T10:35:30.141Z,1.00
2022-09-26T10:38:03.178Z,0.85
2022-09-26T10:40:45.421Z,0.85
2022-09-26T10:43:25.773Z,0.80
2022-09-26T10:45:56.751Z,0.87
2022-09-26T10:48:43.316Z,0.60
2022-09-26T10:51:12.320Z,1.27
2022-09-26T10:53:44.130Z,0.80
2022-09-26T10:56:21.612Z,0.90
2022-09-26T10:58:52.898Z,0.90
2022-09-26T11:01:26.553Z,1.08
2022-09-26T11:03:57.086Z,1.20
2022-09-26T11:06:32.000Z,1.00
2022-09-26T11:09:03.281Z,0.90
2022-09-26T11:11:39.469Z,1.00
2022-09-26T11:14:08.856Z,0.70
2022-09-26T11:16:52.436Z,0.80
2022-09-26T11:19:29.186Z,1.00
2022-09-26T11:22:07.327Z,1.13
2022-09-26T11:24:45.970Z,0.97
2022-09-26T11:27:31.379Z,1.17
2022-09-26T11:30:09.434Z,0.70
2022-09-26T11:32:41.336Z,1.00
2022-09-26T11:35:15.731Z,0.43
2022-09-26T11:38:06.727Z,1.03
2022-09-26T11:40:53.254Z,0.80
2022-09-26T11:43:38.468Z,0.73
2022-09-26T11:46:25.358Z,0.85
2022-09-26T11:49:13.288Z,0.50
2022-09-26T11:51:55.501Z,0.50
2022-09-26T11:54:37.424Z,0.50
2022-09-26T11:57:14.553Z,0.60
2022-09-26T12:00:02.988Z,0.77
2022-09-26T12:02:54.480Z,0.70
2022-09-26T12:05:28.411Z,0.87
2022-09-26T12:08:04.844Z,0.70
2022-09-26T12:10:39.450Z,0.82
2022-09-26T12:13:16.778Z,0.90
2022-09-26T12:15:56.031Z,0.80
2022-09-26T12:18:38.273Z,0.60
2022-09-26T12:21:20.058Z,0.60
2022-09-26T12:23:53.934Z,0.60
2022-09-26T12:26:26.917Z,1.10
2022-09-26T12:29:29.628Z,1.17
2022-09-26T12:32:23.677Z,1.00
2022-09-26T12:35:07.267Z,1.00
2022-09-26T12:37:58.985Z,1.20
2022-09-26T12:40:38.880Z,0.98
2022-09-26T12:43:36.479Z,0.80
2022-09-26T12:46:27.384Z,0.77
2022-09-26T12:49:21.744Z,0.82
2022-09-26T12:51:55.151Z,1.30
2022-09-26T12:54:50.756Z,0.85
2022-09-26T12:57:30.187Z,0.80
2022-09-26T13:00:16.820Z,0.80
2022-09-26T13:03:05.048Z,0.70
2022-09-26T13:06:11.879Z,0.70
2022-09-26T13:08:53.351Z,1.20
2022-09-26T13:11:32.702Z,1.80
2022-09-26T13:14:16.239Z,1.20
2022-09-26T13:16:56.135Z,2.42
2022-09-26T13:19:30.580Z,1.20
2022-09-26T13:22:03.777Z,1.20
2022-09-26T13:24:39.816Z,1.33
2022-09-26T13:27:17.175Z,1.23
2022-09-26T13:29:49.989Z,1.40
2022-09-26T13:32:24.227Z,2.20
2022-09-26T13:35:00.745Z,1.27
2022-09-26T13:37:41.692Z,1.63
2022-09-26T13:40:33.902Z,1.93
2022-09-26T13:43:11.139Z,1.90
2022-09-26T13:45:51.710Z,0.90
2022-09-26T13:48:28.003Z,1.17
2022-09-26T13:51:06.483Z,0.93
2022-09-26T13:53:42.427Z,0.57
2022-09-26T13:56:30.525Z,0.80
2022-09-26T13:59:06.463Z,1.30
2022-09-26T14:01:34.640Z,0.77
2022-09-26T14:04:18.623Z,0.98
2022-09-26T14:07:24.563Z,0.80
2022-09-26T14:09:59.147Z,1.10
2022-09-26T14:12:36.061Z,0.85
2022-09-26T14:15:24.228Z,1.40
2022-09-26T14:18:09.769Z,1.00
2022-09-26T14:20:53.993Z,0.83
2022-09-26T14:23:41.169Z,0.95
2022-09-26T14:26:12.881Z,0.85
2022-09-26T14:28:47.799Z,0.88
2022-09-26T14:31:42.645Z,1.00
2022-09-26T14:34:17.739Z,0.53
2022-09-26T14:36:47.349Z,1.75
2022-09-26T14:39:31.955Z,0.90
2022-09-26T14:42:09.037Z,1.50
2022-09-26T14:44:37.864Z,1.10
2022-09-26T14:47:13.875Z,1.03
2022-09-26T14:49:42.062Z,1.17
2022-09-26T14:52:18.647Z,1.10
2022-09-26T14:54:47.655Z,1.30
2022-09-26T14:57:29.001Z,1.50
2022-09-26T14:59:57.609Z,0.70
2022-09-26T15:02:39.318Z,0.93
2022-09-26T15:05:16.278Z,0.90
2022-09-26T15:07:46.964Z,1.42
2022-09-26T15:10:40.315Z,2.20
2022-09-26T15:13:26.584Z,3.13
2022-09-26T15:16:02.535Z,1.20
2022-09-26T15:18:39.794Z,1.80
2022-09-26T15:21:17.094Z,1.27
2022-09-26T15:23:50.562Z,1.25
2022-09-26T15:26:22.638Z,1.10
2022-09-26T15:28:54.286Z,0.70
2022-09-26T15:31:25.327Z,1.08
2022-09-26T15:33:58.369Z,0.98
2022-09-26T15:36:29.848Z,1.30
2022-09-26T15:38:58.771Z,1.23
2022-09-26T15:41:44.219Z,1.13
2022-09-26T15:44:20.648Z,1.10
2022-09-26T15:46:50.552Z,0.73
2022-09-26T15:49:24.478Z,0.90
2022-09-26T15:51:55.451Z,1.20
2022-09-26T15:54:27.504Z,1.73
2022-09-26T15:56:59.358Z,1.40
2022-09-26T15:59:31.617Z,1.08
2022-09-26T16:02:01.060Z,1.50
2022-09-26T16:04:30.196Z,1.57
2022-09-26T16:07:01.255Z,1.10
2022-09-26T16:09:34.145Z,1.00
2022-09-26T16:12:04.239Z,0.88
2022-09-26T16:14:40.509Z,1.20
2022-09-26T16:17:19.038Z,0.90
2022-09-26T16:19:49.388Z,0.82
2022-09-26T16:22:36.586Z,0.70
2022-09-26T16:25:24.220Z,0.90
2022-09-26T16:27:53.283Z,1.05
2022-09-26T16:30:43.346Z,1.40
2022-09-26T16:33:31.252Z,1.52
2022-09-26T16:36:06.124Z,1.50
2022-09-26T16:38:35.596Z,2.00
2022-09-26T16:41:08.874Z,2.95
2022-09-26T16:43:40.335Z,3.70
2022-09-26T16:46:14.577Z,4.10
2022-09-26T16:48:53.690Z,4.28
2022-09-26T16:51:25.583Z,4.10
2022-09-26T16:53:57.568Z,4.30
2022-09-26T16:56:26.198Z,4.43
2022-09-26T16:58:57.687Z,4.68
2022-09-26T17:01:47.075Z,4.65
2022-09-26T17:04:17.876Z,4.28
2022-09-26T17:06:46.013Z,4.88
2022-09-26T17:09:17.386Z,6.37
2022-09-26T17:11:47.999Z,6.00
2022-09-26T17:14:18.672Z,5.47
2022-09-26T17:16:50.687Z,5.90
2022-09-26T17:19:19.193Z,6.97
2022-09-26T17:21:49.107Z,8.37
2022-09-26T17:24:19.227Z,11.77
2022-09-26T17:26:50.782Z,7.38
2022-09-26T17:29:22.828Z,7.28
2022-09-26T17:31:53.742Z,5.70
2022-09-26T17:34:22.158Z,4.60
2022-09-26T17:36:51.111Z,5.57
2022-09-26T17:39:25.505Z,4.40
2022-09-26T17:41:53.885Z,4.65
2022-09-26T17:44:22.323Z,3.90
2022-09-26T17:46:55.700Z,3.30
2022-09-26T17:49:27.099Z,8.25
2022-09-26T17:51:57.046Z,6.20
2022-09-26T17:54:30.984Z,3.53
2022-09-26T17:56:59.530Z,1.90
2022-09-26T17:59:28.803Z,2.37
2022-09-26T18:02:02.456Z,1.80
2022-09-26T18:04:31.634Z,1.67
2022-09-26T18:07:04.378Z,0.77
2022-09-26T18:09:35.486Z,1.25
2022-09-26T18:12:04.608Z,2.80
2022-09-26T18:14:34.562Z,2.58
2022-09-26T18:17:04.358Z,2.15
2022-09-26T18:19:35.701Z,1.35
2022-09-26T18:22:04.015Z,1.63
2022-09-26T18:24:31.703Z,2.20
2022-09-26T18:27:03.980Z,2.63
2022-09-26T18:29:35.879Z,2.35
2022-09-26T18:32:11.489Z,2.47
2022-09-26T18:34:39.780Z,4.03
2022-09-26T18:37:09.618Z,3.70
2022-09-26T18:39:37.569Z,2.85
2022-09-26T18:42:09.197Z,2.95
2022-09-26T18:44:37.579Z,4.53
2022-09-26T18:47:14.054Z,4.90
2022-09-26T18:49:42.253Z,4.80
2022-09-26T18:52:15.285Z,3.03
2022-09-26T18:54:44.839Z,2.58
2022-09-26T18:57:30.361Z,3.42
2022-09-26T18:59:59.433Z,3.40
2022-09-26T19:02:32.517Z,3.80
2022-09-26T19:05:02.719Z,3.97
2022-09-26T19:07:33.408Z,3.63
2022-09-26T19:10:01.195Z,3.63
2022-09-26T19:12:28.805Z,3.50
2022-09-26T19:14:56.564Z,2.50
2022-09-26T19:17:24.183Z,2.80
2022-09-26T19:19:53.108Z,2.53
2022-09-26T19:22:21.015Z,2.17
2022-09-26T19:24:51.018Z,2.70
2022-09-26T19:27:21.341Z,3.00
2022-09-26T19:29:54.898Z,3.30
2022-09-26T19:32:27.180Z,3.35
2022-09-26T19:35:00.846Z,2.47
2022-09-26T19:37:28.548Z,3.20
2022-09-26T19:39:57.795Z,2.63
2022-09-26T19:42:26.102Z,2.28
2022-09-26T19:44:54.316Z,1.38
2022-09-26T19:47:24.798Z,1.40
2022-09-26T19:49:54.931Z,2.60
2022-09-26T19:52:24.622Z,2.70
2022-09-26T19:54:52.368Z,2.78
2022-09-26T19:57:22.166Z,1.90
2022-09-26T19:59:51.108Z,1.88
2022-09-26T20:02:20.899Z,1.60
2022-09-26T20:04:49.933Z,1.43
2022-09-26T20:07:19.351Z,1.48
2022-09-26T20:09:49.164Z,1.30
2022-09-26T20:12:17.270Z,1.40
2022-09-26T20:14:45.234Z,1.20
2022-09-26T20:17:18.640Z,1.27
2022-09-26T20:19:46.984Z,1.38
2022-09-26T20:22:16.710Z,1.17
2022-09-26T20:24:44.892Z,1.02
2022-09-26T20:27:19.101Z,1.00
2022-09-26T20:30:05.279Z,0.77
2022-09-26T20:32:33.258Z,0.80
2022-09-26T20:35:01.655Z,0.95
2022-09-26T20:37:31.904Z,0.80
2022-09-26T20:40:00.350Z,1.10
2022-09-26T20:42:35.521Z,2.27
2022-09-26T20:45:05.923Z,1.40
2022-09-26T20:47:37.892Z,1.40
2022-09-26T20:50:06.021Z,1.42
2022-09-26T20:52:33.985Z,1.00
2022-09-26T20:55:01.844Z,0.63
2022-09-26T20:57:30.981Z,0.82
2022-09-26T20:59:58.619Z,0.80
2022-09-26T21:02:33.993Z,0.73
2022-09-26T21:05:02.466Z,0.73
2022-09-26T21:07:32.752Z,0.57
2022-09-26T21:10:03.136Z,0.40
2022-09-26T21:12:34.438Z,0.35
2022-09-26T21:15:02.031Z,0.32
2022-09-26T21:17:29.966Z,0.65
2022-09-26T21:19:57.790Z,0.67
2022-09-26T21:22:28.956Z,0.63
2022-09-26T21:24:56.920Z,0.40
2022-09-26T21:27:24.808Z,0.57
2022-09-26T21:29:53.829Z,0.57
2022-09-26T21:32:23.666Z,0.60
2022-09-26T21:34:58.405Z,0.60
2022-09-26T21:37:26.026Z,0.40
2022-09-26T21:39:54.265Z,0.47
2022-09-26T21:42:22.151Z,0.40
2022-09-26T21:44:57.181Z,0.40
2022-09-26T21:47:24.795Z,0.45
2022-09-26T21:49:55.845Z,0.30
2022-09-26T21:52:29.011Z,0.30
2022-09-26T21:54:58.875Z,0.38
2022-09-26T21:57:29.445Z,0.20
2022-09-26T21:59:59.920Z,0.30
2022-09-26T22:02:29.006Z,0.30
2022-09-26T22:04:56.689Z,0.40
2022-09-26T22:07:24.904Z,0.30
2022-09-26T22:09:54.706Z,0.30
2022-09-26T22:12:23.497Z,0.35
2022-09-26T22:14:54.389Z,0.30
2022-09-26T22:17:23.296Z,0.20
2022-09-26T22:19:53.328Z,0.43
2022-09-26T22:22:21.714Z,0.20
2022-09-26T22:24:49.736Z,0.20
2022-09-26T22:27:17.398Z,0.22
2022-09-26T22:29:45.169Z,0.20
2022-09-26T22:32:15.868Z,0.30
2022-09-26T22:34:45.138Z,0.27
2022-09-26T22:37:13.353Z,0.20
2022-09-26T22:39:41.420Z,0.40
2022-09-26T22:42:09.334Z,0.20
2022-09-26T22:44:36.930Z,0.40
2022-09-26T22:47:05.349Z,0.20
2022-09-26T22:49:32.973Z,0.20
2022-09-26T22:52:03.109Z,0.25
2022-09-26T22:54:31.710Z,0.30
2022-09-26T22:56:59.550Z,0.43
2022-09-26T22:59:27.628Z,0.30
2022-09-26T23:01:57.812Z,0.40
2022-09-26T23:04:46.798Z,0.30
2022-09-26T23:07:17.955Z,0.30
2022-09-26T23:09:47.960Z,0.38
2022-09-26T23:12:15.885Z,0.53
2022-09-26T23:14:43.888Z,0.28
2022-09-26T23:17:11.789Z,0.40
2022-09-26T23:19:42.531Z,0.40
2022-09-26T23:22:10.145Z,0.50
2022-09-26T23:24:39.327Z,0.40
2022-09-26T23:27:07.026Z,0.30
2022-09-26T23:29:35.230Z,0.70
2022-09-26T23:32:03.044Z,0.40
2022-09-26T23:34:34.105Z,0.47
2022-09-26T23:37:01.697Z,0.47
2022-09-26T23:39:30.969Z,0.60
2022-09-26T23:42:00.085Z,0.43
2022-09-26T23:44:28.247Z,0.45
2022-09-26T23:47:00.907Z,0.60
2022-09-26T23:49:28.885Z,0.53
2022-09-26T23:51:56.886Z,0.57
2022-09-26T23:54:24.704Z,0.50
2022-09-26T23:56:53.312Z,0.85
2022-09-26T23:59:23.170Z,0.70
